createdAt,value
2022-11-27T00:01:31.659Z,77.10
2022-11-27T00:03:59.083Z,77.10
2022-11-27T00:06:28.954Z,77.20
2022-11-27T00:08:57.708Z,77.20
2022-11-27T00:11:27.484Z,77.10
2022-11-27T00:13:55.468Z,77.10
2022-11-27T00:16:24.226Z,77.10
2022-11-27T00:18:51.888Z,77.20
2022-11-27T00:21:25.319Z,77.30
2022-11-27T00:23:54.481Z,77.50
2022-11-27T00:26:23.239Z,77.40
2022-11-27T00:28:51.561Z,77.60
2022-11-27T00:31:29.299Z,77.60
2022-11-27T00:34:01.907Z,77.70
2022-11-27T00:36:31.058Z,77.90
2022-11-27T00:38:58.888Z,78.00
2022-11-27T00:41:29.249Z,78.20
2022-11-27T00:43:57.855Z,78.40
2022-11-27T00:46:29.444Z,78.50
2022-11-27T00:49:01.477Z,78.70
2022-11-27T00:51:29.982Z,78.60
2022-11-27T00:53:58.034Z,78.50
2022-11-27T00:56:27.732Z,78.50
2022-11-27T00:58:56.023Z,78.40
2022-11-27T01:01:28.122Z,78.10
2022-11-27T01:03:57.250Z,78.10
2022-11-27T01:06:25.833Z,78.20
2022-11-27T01:08:53.498Z,78.30
2022-11-27T01:11:26.448Z,78.20
2022-11-27T01:13:57.223Z,78.20
2022-11-27T01:16:26.549Z,78.30
2022-11-27T01:18:57.545Z,78.20
2022-11-27T01:21:26.430Z,78.20
2022-11-27T01:23:54.700Z,78.20
2022-11-27T01:26:22.107Z,78.10
2022-11-27T01:28:52.909Z,78.10
2022-11-27T01:31:23.774Z,78.10
2022-11-27T01:34:00.441Z,77.90
2022-11-27T01:36:29.218Z,77.90
2022-11-27T01:38:56.847Z,77.90
2022-11-27T01:41:27.706Z,77.70
2022-11-27T01:44:00.683Z,77.60
2022-11-27T01:46:34.959Z,77.40
2022-11-27T01:49:11.600Z,77.40
2022-11-27T01:51:50.486Z,77.60
2022-11-27T01:54:20.068Z,77.80
2022-11-27T01:56:52.046Z,78.00
2022-11-27T01:59:20.714Z,78.20
2022-11-27T02:01:48.205Z,78.20
2022-11-27T02:04:15.578Z,78.20
2022-11-27T02:06:42.949Z,78.40
2022-11-27T02:09:10.346Z,78.50
2022-11-27T02:11:53.855Z,78.70
2022-11-27T02:14:30.781Z,78.80
2022-11-27T02:17:12.475Z,78.70
2022-11-27T02:20:19.266Z,78.80
2022-11-27T02:23:24.135Z,78.80
2022-11-27T02:26:25.795Z,78.50
2022-11-27T02:29:11.867Z,78.40
2022-11-27T02:31:47.014Z,78.40
2022-11-27T02:34:31.018Z,78.30
2022-11-27T02:37:09.026Z,78.30
2022-11-27T02:40:10.387Z,78.20
2022-11-27T02:42:53.483Z,78.10
2022-11-27T02:45:33.570Z,78.10
2022-11-27T02:48:00.808Z,78.00
2022-11-27T02:50:31.878Z,78.10
2022-11-27T02:53:03.443Z,78.20
2022-11-27T02:55:34.792Z,78.30
2022-11-27T02:58:05.230Z,78.40
2022-11-27T03:00:34.376Z,78.40
2022-11-27T03:03:05.852Z,78.50
2022-11-27T03:05:37.791Z,78.60
2022-11-27T03:08:25.806Z,78.60
2022-11-27T03:11:04.592Z,78.70
2022-11-27T03:13:37.995Z,78.80
2022-11-27T03:16:31.267Z,79.70
2022-11-27T03:19:13.630Z,78.90
2022-11-27T03:21:43.566Z,78.80
2022-11-27T03:24:12.156Z,78.80
2022-11-27T03:26:40.359Z,78.70
2022-11-27T03:29:14.944Z,78.70
2022-11-27T03:31:42.421Z,78.70
2022-11-27T03:34:11.126Z,78.60
2022-11-27T03:36:38.419Z,78.60
2022-11-27T03:39:05.805Z,78.60
2022-11-27T03:42:14.545Z,78.70
2022-11-27T03:45:06.952Z,79.00
2022-11-27T03:47:40.132Z,79.30
2022-11-27T03:50:20.389Z,79.40
2022-11-27T03:52:47.554Z,79.50
2022-11-27T03:55:39.870Z,79.40
2022-11-27T03:58:15.226Z,79.40
2022-11-27T04:00:45.179Z,79.40
2022-11-27T04:03:13.377Z,79.30
2022-11-27T04:05:40.943Z,79.20
2022-11-27T04:08:08.241Z,79.10
2022-11-27T04:10:35.465Z,80.00
2022-11-27T04:13:02.794Z,79.20
2022-11-27T04:15:30.346Z,79.30
2022-11-27T04:17:57.525Z,79.40
2022-11-27T04:20:24.709Z,79.30
2022-11-27T04:22:51.953Z,79.30
2022-11-27T04:25:19.334Z,79.30
2022-11-27T04:27:47.298Z,79.30
2022-11-27T04:30:14.661Z,79.30
2022-11-27T04:32:41.894Z,79.30
2022-11-27T04:35:09.730Z,79.40
2022-11-27T04:37:37.029Z,79.40
2022-11-27T04:40:05.865Z,79.40
2022-11-27T04:42:33.133Z,79.40
2022-11-27T04:45:00.311Z,79.40
2022-11-27T04:47:27.635Z,79.40
2022-11-27T04:49:54.822Z,79.50
2022-11-27T04:52:22.110Z,79.60
2022-11-27T04:54:49.333Z,79.50
2022-11-27T04:57:16.761Z,79.50
2022-11-27T04:59:44.018Z,79.40
2022-11-27T05:02:11.301Z,79.50
2022-11-27T05:04:38.811Z,79.40
2022-11-27T05:07:06.217Z,79.30
2022-11-27T05:09:33.571Z,79.10
2022-11-27T05:12:00.944Z,79.10
2022-11-27T05:14:29.273Z,79.80
2022-11-27T05:16:59.075Z,79.00
2022-11-27T05:19:28.871Z,79.10
2022-11-27T05:21:56.638Z,79.00
2022-11-27T05:24:26.881Z,79.00
2022-11-27T05:26:55.119Z,79.00
2022-11-27T05:29:23.577Z,79.00
2022-11-27T05:31:51.290Z,79.00
2022-11-27T05:34:19.267Z,79.00
2022-11-27T05:36:46.853Z,79.00
2022-11-27T05:39:14.563Z,78.90
2022-11-27T05:41:43.407Z,79.00
2022-11-27T05:44:13.178Z,79.00
2022-11-27T05:46:43.463Z,79.00
2022-11-27T05:49:15.937Z,79.00
2022-11-27T05:51:49.344Z,79.80
2022-11-27T05:54:18.595Z,78.90
2022-11-27T05:56:46.190Z,78.90
2022-11-27T05:59:14.225Z,78.90
2022-11-27T06:01:41.681Z,78.90
2022-11-27T06:04:09.290Z,79.70
2022-11-27T06:06:36.710Z,79.00
2022-11-27T06:09:07.938Z,79.00
2022-11-27T06:11:38.345Z,79.10
2022-11-27T06:14:08.937Z,79.00
2022-11-27T06:16:37.214Z,79.00
2022-11-27T06:19:04.707Z,79.00
2022-11-27T06:21:32.089Z,79.00
2022-11-27T06:23:59.623Z,79.00
2022-11-27T06:26:29.605Z,79.00
2022-11-27T06:28:58.554Z,78.90
2022-11-27T06:31:28.877Z,78.90
2022-11-27T06:33:57.339Z,79.00
2022-11-27T06:36:29.638Z,79.00
2022-11-27T06:38:57.033Z,78.90
2022-11-27T06:41:26.969Z,78.90
2022-11-27T06:43:55.640Z,78.90
2022-11-27T06:46:24.042Z,79.00
2022-11-27T06:48:52.954Z,79.00
2022-11-27T06:51:23.439Z,78.90
2022-11-27T06:53:51.483Z,79.00
2022-11-27T06:56:24.779Z,78.90
2022-11-27T06:58:57.157Z,78.90
2022-11-27T07:01:26.579Z,78.90
2022-11-27T07:03:54.212Z,79.00
2022-11-27T07:06:23.747Z,79.10
2022-11-27T07:08:51.403Z,79.10
2022-11-27T07:11:21.279Z,79.10
2022-11-27T07:13:50.339Z,79.20
2022-11-27T07:16:18.852Z,79.20
2022-11-27T07:18:49.096Z,79.20
2022-11-27T07:21:17.186Z,79.30
2022-11-27T07:23:44.975Z,79.30
2022-11-27T07:26:24.688Z,79.40
2022-11-27T07:28:52.410Z,79.40
2022-11-27T07:31:26.802Z,79.40
2022-11-27T07:33:54.515Z,79.60
2022-11-27T07:36:27.848Z,79.40
2022-11-27T07:38:55.351Z,79.40
2022-11-27T07:41:22.793Z,79.40
2022-11-27T07:43:50.505Z,79.50
2022-11-27T07:46:23.022Z,79.50
2022-11-27T07:48:50.524Z,79.60
2022-11-27T07:51:20.378Z,79.70
2022-11-27T07:53:48.542Z,79.80
2022-11-27T07:56:16.166Z,79.90
2022-11-27T07:58:44.073Z,79.90
2022-11-27T08:01:14.248Z,79.90
2022-11-27T08:03:44.215Z,79.90
2022-11-27T08:06:20.995Z,80.00
2022-11-27T08:08:49.175Z,80.10
2022-11-27T08:11:18.910Z,80.10
2022-11-27T08:13:46.604Z,80.10
2022-11-27T08:16:14.721Z,80.10
2022-11-27T08:18:42.531Z,80.20
2022-11-27T08:21:10.449Z,80.10
2022-11-27T08:23:37.844Z,80.10
2022-11-27T08:26:07.109Z,80.10
2022-11-27T08:28:34.534Z,80.20
2022-11-27T08:31:04.487Z,80.10
2022-11-27T08:33:32.694Z,79.90
2022-11-27T08:36:00.831Z,79.70
2022-11-27T08:38:28.293Z,79.40
2022-11-27T08:40:56.618Z,79.10
2022-11-27T08:43:24.726Z,79.20
2022-11-27T08:45:52.617Z,79.10
2022-11-27T08:48:21.017Z,78.60
2022-11-27T08:50:49.345Z,78.50
2022-11-27T08:53:17.576Z,78.40
2022-11-27T08:55:45.533Z,78.40
2022-11-27T08:58:12.789Z,78.50
2022-11-27T09:00:40.444Z,78.30
2022-11-27T09:03:07.883Z,78.20
2022-11-27T09:05:35.634Z,78.20
2022-11-27T09:08:05.489Z,78.30
2022-11-27T09:10:33.469Z,78.30
2022-11-27T09:13:00.915Z,78.20
2022-11-27T09:15:28.281Z,78.20
2022-11-27T09:17:55.957Z,78.30
2022-11-27T09:20:23.385Z,78.40
2022-11-27T09:22:50.950Z,78.50
2022-11-27T09:25:18.358Z,78.40
2022-11-27T09:27:46.002Z,78.50
2022-11-27T09:30:13.710Z,78.50
2022-11-27T09:32:41.094Z,78.60
2022-11-27T09:35:09.048Z,78.60
2022-11-27T09:37:36.690Z,78.70
2022-11-27T09:40:04.597Z,78.90
2022-11-27T09:42:40.914Z,78.80
2022-11-27T09:45:14.270Z,78.70
2022-11-27T09:47:49.062Z,78.70
2022-11-27T09:50:22.504Z,78.90
2022-11-27T09:52:57.684Z,78.80
2022-11-27T09:55:33.793Z,78.80
2022-11-27T09:58:26.511Z,78.60
2022-11-27T10:00:53.814Z,78.60
2022-11-27T10:03:26.020Z,78.80
2022-11-27T10:06:38.532Z,78.70
2022-11-27T10:09:29.696Z,78.30
2022-11-27T10:12:11.071Z,78.40
2022-11-27T10:14:44.334Z,78.40
2022-11-27T10:17:25.199Z,78.70
2022-11-27T10:19:55.311Z,78.90
2022-11-27T10:22:57.637Z,79.00
2022-11-27T10:25:48.935Z,78.60
2022-11-27T10:28:38.355Z,78.60
2022-11-27T10:31:30.985Z,78.30
2022-11-27T10:34:04.379Z,78.30
2022-11-27T10:36:43.808Z,78.30
2022-11-27T10:39:33.537Z,78.00
2022-11-27T10:42:21.879Z,77.70
2022-11-27T10:44:55.237Z,77.60
2022-11-27T10:47:24.058Z,77.50
2022-11-27T10:49:51.317Z,77.50
2022-11-27T10:52:19.911Z,77.60
2022-11-27T10:54:55.943Z,77.40
2022-11-27T10:57:36.630Z,77.20
2022-11-27T11:00:07.702Z,77.10
2022-11-27T11:02:40.411Z,77.20
2022-11-27T11:05:34.603Z,77.20
2022-11-27T11:08:06.306Z,77.50
2022-11-27T11:10:37.530Z,77.50
2022-11-27T11:13:17.050Z,77.60
2022-11-27T11:15:54.899Z,76.80
2022-11-27T11:18:25.490Z,77.40
2022-11-27T11:20:57.124Z,77.30
2022-11-27T11:23:41.270Z,77.20
2022-11-27T11:26:27.466Z,77.10
2022-11-27T11:28:58.487Z,77.20
2022-11-27T11:31:39.749Z,77.20
2022-11-27T11:34:21.307Z,77.10
2022-11-27T11:37:05.375Z,77.20
2022-11-27T11:39:40.126Z,76.90
2022-11-27T11:42:11.097Z,76.80
2022-11-27T11:44:40.047Z,76.80
2022-11-27T11:47:20.348Z,76.70
2022-11-27T11:49:47.748Z,76.80
2022-11-27T11:52:49.667Z,77.00
2022-11-27T11:55:26.769Z,77.20
2022-11-27T11:58:02.449Z,77.50
2022-11-27T12:01:11.780Z,77.50
2022-11-27T12:04:11.088Z,77.50
2022-11-27T12:07:22.125Z,77.60
2022-11-27T12:10:17.111Z,77.50
2022-11-27T12:13:19.083Z,77.40
2022-11-27T12:16:18.714Z,77.50
2022-11-27T12:19:11.406Z,77.60
2022-11-27T12:21:59.451Z,77.70
2022-11-27T12:24:57.005Z,77.70
2022-11-27T12:27:45.001Z,77.80
2022-11-27T12:30:26.382Z,78.00
2022-11-27T12:33:21.117Z,78.00
2022-11-27T12:36:11.757Z,78.00
2022-11-27T12:39:00.902Z,78.00
2022-11-27T12:41:40.242Z,78.00
2022-11-27T12:44:34.546Z,77.80
2022-11-27T12:47:11.792Z,77.80
2022-11-27T12:49:44.849Z,77.70
2022-11-27T12:52:27.630Z,77.80
2022-11-27T12:55:12.194Z,78.00
2022-11-27T12:57:54.139Z,78.10
2022-11-27T13:00:25.068Z,78.00
2022-11-27T13:03:14.936Z,78.00
2022-11-27T13:05:49.608Z,77.90
2022-11-27T13:08:46.139Z,77.80
2022-11-27T13:11:18.071Z,77.80
2022-11-27T13:13:55.343Z,78.00
2022-11-27T13:16:31.555Z,77.90
2022-11-27T13:19:07.247Z,77.90
2022-11-27T13:21:36.169Z,77.60
2022-11-27T13:24:04.469Z,77.80
2022-11-27T13:26:40.317Z,77.90
2022-11-27T13:29:19.300Z,78.10
2022-11-27T13:31:51.510Z,77.90
2022-11-27T13:34:23.276Z,78.00
2022-11-27T13:36:59.107Z,77.90
2022-11-27T13:39:37.627Z,77.90
2022-11-27T13:42:22.276Z,77.80
2022-11-27T13:44:58.341Z,77.80
2022-11-27T13:47:28.671Z,77.70
2022-11-27T13:50:02.771Z,77.90
2022-11-27T13:52:30.530Z,77.90
2022-11-27T13:55:09.804Z,78.10
2022-11-27T13:57:38.409Z,78.10
2022-11-27T14:00:07.522Z,78.30
2022-11-27T14:02:47.008Z,78.50
2022-11-27T14:05:20.217Z,78.50
2022-11-27T14:07:50.585Z,78.40
2022-11-27T14:10:25.359Z,78.40
2022-11-27T14:13:08.517Z,78.30
2022-11-27T14:15:38.256Z,78.10
2022-11-27T14:18:08.847Z,78.00
2022-11-27T14:20:45.801Z,77.90
2022-11-27T14:23:13.877Z,78.00
2022-11-27T14:25:41.914Z,77.90
2022-11-27T14:28:25.970Z,77.80
2022-11-27T14:30:55.390Z,77.80
2022-11-27T14:33:28.372Z,77.70
2022-11-27T14:36:01.057Z,77.70
2022-11-27T14:38:30.474Z,77.80
2022-11-27T14:41:16.267Z,77.70
2022-11-27T14:43:43.853Z,77.80
2022-11-27T14:46:18.615Z,77.90
2022-11-27T14:48:57.441Z,78.10
2022-11-27T14:51:28.063Z,78.00
2022-11-27T14:54:13.223Z,77.90
2022-11-27T14:56:43.100Z,77.90
2022-11-27T14:59:15.338Z,78.00
2022-11-27T15:01:43.072Z,77.90
2022-11-27T15:04:34.895Z,78.00
2022-11-27T15:07:06.630Z,77.80
2022-11-27T15:09:35.629Z,77.90
2022-11-27T15:12:14.911Z,78.00
2022-11-27T15:14:47.692Z,77.90
2022-11-27T15:17:21.080Z,77.80
2022-11-27T15:19:48.445Z,77.60
2022-11-27T15:22:17.658Z,77.80
2022-11-27T15:24:45.339Z,77.80
2022-11-27T15:27:16.770Z,77.70
2022-11-27T15:29:50.897Z,77.70
2022-11-27T15:32:23.660Z,77.60
2022-11-27T15:34:52.188Z,77.50
2022-11-27T15:37:31.736Z,77.60
2022-11-27T15:40:01.110Z,77.60
2022-11-27T15:42:30.152Z,77.70
2022-11-27T15:44:58.265Z,77.70
2022-11-27T15:47:27.825Z,77.70
2022-11-27T15:49:55.839Z,77.60
2022-11-27T15:52:24.009Z,77.70
2022-11-27T15:54:51.825Z,77.70
2022-11-27T15:57:19.394Z,77.60
2022-11-27T15:59:46.705Z,77.60
2022-11-27T16:02:17.805Z,77.50
2022-11-27T16:04:45.470Z,77.40
2022-11-27T16:07:13.167Z,77.50
2022-11-27T16:09:40.527Z,77.50
2022-11-27T16:12:07.892Z,77.50
2022-11-27T16:14:35.118Z,77.50
2022-11-27T16:17:02.520Z,77.50
2022-11-27T16:19:30.134Z,77.50
2022-11-27T16:21:57.372Z,77.30
2022-11-27T16:24:24.564Z,77.20
2022-11-27T16:26:51.970Z,77.00
2022-11-27T16:29:19.473Z,77.10
2022-11-27T16:31:47.251Z,77.10
2022-11-27T16:34:16.023Z,77.10
2022-11-27T16:36:43.784Z,77.20
2022-11-27T16:39:12.129Z,77.30
2022-11-27T16:41:40.429Z,77.50
2022-11-27T16:44:14.135Z,77.50
2022-11-27T16:46:43.691Z,77.50
2022-11-27T16:49:12.287Z,77.60
2022-11-27T16:51:41.007Z,77.80
2022-11-27T16:54:13.309Z,78.00
2022-11-27T16:56:44.019Z,78.10
2022-11-27T16:59:13.964Z,78.20
2022-11-27T17:01:42.819Z,78.30
2022-11-27T17:04:16.799Z,78.20
2022-11-27T17:06:44.704Z,78.30
2022-11-27T17:09:12.238Z,78.30
2022-11-27T17:11:43.556Z,78.10
2022-11-27T17:14:11.633Z,78.00
2022-11-27T17:16:41.339Z,78.10
2022-11-27T17:19:14.125Z,78.10
2022-11-27T17:21:42.248Z,78.20
2022-11-27T17:24:15.279Z,78.30
2022-11-27T17:26:47.899Z,78.20
2022-11-27T17:29:18.275Z,78.30
2022-11-27T17:31:45.649Z,78.30
2022-11-27T17:34:15.455Z,78.10
2022-11-27T17:36:45.237Z,78.10
2022-11-27T17:39:14.987Z,78.20
2022-11-27T17:41:46.727Z,78.00
2022-11-27T17:44:14.217Z,78.00
2022-11-27T17:46:44.837Z,77.90
2022-11-27T17:49:12.545Z,77.90
2022-11-27T17:51:41.182Z,77.80
2022-11-27T17:54:11.162Z,77.90
2022-11-27T17:56:39.331Z,77.80
2022-11-27T17:59:06.710Z,77.90
2022-11-27T18:01:34.772Z,77.90
2022-11-27T18:04:04.377Z,77.90
2022-11-27T18:06:32.718Z,77.90
2022-11-27T18:09:00.551Z,77.90
2022-11-27T18:11:31.155Z,77.90
2022-11-27T18:14:00.890Z,77.90
2022-11-27T18:16:38.393Z,77.80
2022-11-27T18:19:08.011Z,77.80
2022-11-27T18:21:36.541Z,77.60
2022-11-27T18:27:08.305Z,77.60
2022-11-27T18:29:42.676Z,77.60
2022-11-27T18:32:11.392Z,77.60
2022-11-27T18:34:39.100Z,77.50
2022-11-27T18:37:07.251Z,77.40
2022-11-27T18:39:35.777Z,77.40
2022-11-27T18:42:04.810Z,77.30
2022-11-27T18:44:33.436Z,77.30
2022-11-27T18:47:00.865Z,77.30
2022-11-27T18:49:28.859Z,77.40
2022-11-27T18:51:56.438Z,77.50
2022-11-27T18:54:24.510Z,77.50
2022-11-27T18:56:51.850Z,77.50
2022-11-27T18:59:19.387Z,77.70
2022-11-27T19:01:47.056Z,77.70
2022-11-27T19:04:15.088Z,77.60
2022-11-27T19:06:43.402Z,77.50
2022-11-27T19:09:12.659Z,77.60
2022-11-27T19:11:40.182Z,77.70
2022-11-27T19:14:08.567Z,77.80
2022-11-27T19:16:43.740Z,77.70
2022-11-27T19:19:52.842Z,77.80
2022-11-27T19:22:07.467Z,77.80
2022-11-27T19:24:34.806Z,77.80
2022-11-27T19:27:02.646Z,77.80
2022-11-27T19:29:30.360Z,77.90
2022-11-27T19:31:58.823Z,78.70
2022-11-27T19:34:26.353Z,77.80
2022-11-27T19:36:53.841Z,77.70
2022-11-27T19:39:21.518Z,77.80
2022-11-27T19:41:49.615Z,77.80
2022-11-27T19:44:17.682Z,77.70
2022-11-27T19:46:46.354Z,77.60
2022-11-27T19:49:17.652Z,77.60
2022-11-27T19:51:46.479Z,77.70
2022-11-27T19:54:14.814Z,77.70
2022-11-27T19:56:43.157Z,77.70
2022-11-27T19:59:12.109Z,77.70
2022-11-27T20:01:41.452Z,77.70
2022-11-27T20:04:15.007Z,77.80
2022-11-27T20:06:42.881Z,77.70
2022-11-27T20:09:11.104Z,77.50
2022-11-27T20:11:39.819Z,77.50
2022-11-27T20:14:07.730Z,77.50
2022-11-27T20:16:36.311Z,77.50
2022-11-27T20:19:05.835Z,77.50
2022-11-27T20:21:36.618Z,77.50
2022-11-27T20:24:04.415Z,77.60
2022-11-27T20:26:37.084Z,77.50
2022-11-27T20:29:07.714Z,77.30
2022-11-27T20:31:37.620Z,77.40
2022-11-27T20:34:06.506Z,77.30
2022-11-27T20:36:37.371Z,77.20
2022-11-27T20:39:05.080Z,77.10
2022-11-27T20:41:32.426Z,77.00
2022-11-27T20:44:01.670Z,76.80
2022-11-27T20:46:32.013Z,76.80
2022-11-27T20:48:59.295Z,76.90
2022-11-27T20:51:33.180Z,77.00
2022-11-27T20:54:06.851Z,77.00
2022-11-27T20:56:34.777Z,77.00
2022-11-27T20:59:04.787Z,77.10
2022-11-27T21:01:35.667Z,77.20
2022-11-27T21:04:09.522Z,77.30
2022-11-27T21:06:43.429Z,77.40
2022-11-27T21:09:13.584Z,77.40
2022-11-27T21:11:42.078Z,77.40
2022-11-27T21:14:11.367Z,77.40
2022-11-27T21:16:41.944Z,77.40
2022-11-27T21:19:27.334Z,77.20
2022-11-27T21:21:57.055Z,77.20
2022-11-27T21:24:27.907Z,77.20
2022-11-27T21:26:56.529Z,77.10
2022-11-27T21:29:25.724Z,76.90
2022-11-27T21:31:55.464Z,77.00
2022-11-27T21:34:24.476Z,77.00
2022-11-27T21:36:52.247Z,76.90
2022-11-27T21:39:22.485Z,76.80
2022-11-27T21:41:52.677Z,76.90
2022-11-27T21:44:21.787Z,76.80
2022-11-27T21:46:50.384Z,76.80
2022-11-27T21:49:20.549Z,76.90
2022-11-27T21:51:53.050Z,76.90
2022-11-27T21:54:22.345Z,76.90
2022-11-27T21:56:51.447Z,76.80
2022-11-27T21:59:18.970Z,76.70
2022-11-27T22:01:47.392Z,76.70
2022-11-27T22:04:15.192Z,76.80
2022-11-27T22:06:44.950Z,76.90
2022-11-27T22:09:15.689Z,76.90
2022-11-27T22:11:45.331Z,76.90
2022-11-27T22:14:14.912Z,77.00
2022-11-27T22:16:46.230Z,76.90
2022-11-27T22:19:15.715Z,76.90
2022-11-27T22:21:44.562Z,76.90
2022-11-27T22:24:18.271Z,77.00
2022-11-27T22:26:48.516Z,77.00
2022-11-27T22:29:16.444Z,77.80
2022-11-27T22:31:44.044Z,76.80
2022-11-27T22:34:11.362Z,76.80
2022-11-27T22:36:39.395Z,76.80
2022-11-27T22:39:08.473Z,76.80
2022-11-27T22:41:38.758Z,76.70
2022-11-27T22:44:16.960Z,76.90
2022-11-27T22:46:45.126Z,76.80
2022-11-27T22:49:14.754Z,76.80
2022-11-27T22:51:42.688Z,76.70
2022-11-27T22:54:13.390Z,76.80
2022-11-27T22:56:41.258Z,76.70
2022-11-27T23:01:58.550Z,76.70
2022-11-27T23:04:26.045Z,76.70
2022-11-27T23:06:53.662Z,76.80
2022-11-27T23:09:20.932Z,76.60
2022-11-27T23:11:48.459Z,76.70
2022-11-27T23:14:15.753Z,76.70
2022-11-27T23:16:43.368Z,76.70
2022-11-27T23:19:11.295Z,76.70
2022-11-27T23:21:39.122Z,76.80
2022-11-27T23:24:08.139Z,76.80
2022-11-27T23:26:35.790Z,76.80
2022-11-27T23:29:03.203Z,76.70
2022-11-27T23:31:35.529Z,76.70
2022-11-27T23:34:08.995Z,76.60
2022-11-27T23:36:36.586Z,76.60
2022-11-27T23:39:07.034Z,76.60
2022-11-27T23:41:34.852Z,76.60
2022-11-27T23:44:02.220Z,76.60
2022-11-27T23:46:30.150Z,76.60
2022-11-27T23:48:59.564Z,76.60
2022-11-27T23:51:30.174Z,76.70
2022-11-27T23:53:58.013Z,76.70
2022-11-27T23:56:28.421Z,76.70
2022-11-27T23:58:56.908Z,77.60
